createdAt,value
2022-09-06T00:00:43.391Z,66090.72
2022-09-06T00:03:10.090Z,66089.59
2022-09-06T00:10:30.923Z,66093.19
2022-09-06T00:15:26.960Z,66088.72
2022-09-06T00:20:19.669Z,66083.47
2022-09-06T00:22:46.041Z,66094.69
2022-09-06T00:25:12.432Z,66091.09
2022-09-06T00:30:05.716Z,66088.47
2022-09-06T00:32:32.508Z,66089.59
2022-09-06T00:34:58.890Z,66093.34
2022-09-06T00:37:25.337Z,66089.59
2022-09-06T00:39:51.746Z,66092.22
2022-09-06T00:42:18.176Z,66097.47
2022-09-06T00:47:11.058Z,66085.53
2022-09-06T00:52:12.796Z,66035.31
2022-09-06T00:54:40.226Z,66033.47
2022-09-06T00:57:06.878Z,66015.47
2022-09-06T00:59:36.085Z,66013.75
2022-09-06T01:04:29.646Z,66019.69
2022-09-06T01:07:23.842Z,66018.19
2022-09-06T01:10:14.873Z,66022.47
2022-09-06T01:13:20.450Z,66030.47
2022-09-06T01:21:17.544Z,66026.94
2022-09-06T01:24:07.610Z,66031.66
2022-09-06T01:26:56.968Z,66025.44
2022-09-06T01:29:38.326Z,66033.25
2022-09-06T01:32:23.470Z,66055.41
2022-09-06T01:35:02.662Z,66053.72
2022-09-06T01:37:29.247Z,66050.22
2022-09-06T01:39:55.807Z,66065.06
2022-09-06T01:42:26.476Z,66061.53
2022-09-06T01:44:57.340Z,66068.63
2022-09-06T01:47:37.490Z,66065.44
2022-09-06T01:50:21.244Z,66072.94
2022-09-06T01:53:02.622Z,66058.19
2022-09-06T01:55:35.265Z,66047.75
2022-09-06T01:58:27.950Z,66058.03
2022-09-06T02:01:02.739Z,66062.50
2022-09-06T02:03:43.290Z,66051.09
2022-09-06T02:06:17.023Z,66057.28
2022-09-06T02:08:50.859Z,66048.38
2022-09-06T02:11:17.582Z,66068.88
2022-09-06T02:13:57.862Z,66060.13
2022-09-06T02:16:27.386Z,66053.72
2022-09-06T02:18:59.613Z,66043.28
2022-09-06T02:21:36.028Z,66047.81
2022-09-06T02:24:08.642Z,66052.03
2022-09-06T02:26:40.324Z,66040.91
2022-09-06T02:31:45.050Z,66048.16
2022-09-06T02:34:15.352Z,66049.81
2022-09-06T02:36:41.834Z,66044.47
2022-09-06T02:44:01.635Z,66033.81
2022-09-06T02:46:28.084Z,66033.81
2022-09-06T02:48:54.679Z,66031.97
2022-09-06T02:51:21.079Z,66019.00
2022-09-06T02:58:40.170Z,66005.13
2022-09-06T03:01:07.022Z,66019.69
2022-09-06T03:03:33.542Z,66007.81
2022-09-06T03:05:59.964Z,66004.16
2022-09-06T03:08:29.202Z,66000.41
2022-09-06T03:10:56.777Z,65989.19
2022-09-06T03:13:24.554Z,65994.28
2022-09-06T03:20:44.390Z,65981.38
2022-09-06T03:23:10.965Z,65978.38
2022-09-06T03:25:37.358Z,65985.31
2022-09-06T03:28:03.767Z,66002.09
2022-09-06T03:30:30.196Z,66000.75
2022-09-06T03:32:58.155Z,66005.94
2022-09-06T03:35:27.174Z,66005.94
2022-09-06T03:37:53.549Z,65998.13
2022-09-06T03:40:19.979Z,65991.81
2022-09-06T03:42:46.500Z,65977.84
2022-09-06T03:45:12.970Z,65999.47
2022-09-06T03:47:39.616Z,65995.56
2022-09-06T03:50:07.023Z,65978.69
2022-09-06T03:54:59.701Z,65967.28
2022-09-06T03:57:26.100Z,65968.03
2022-09-06T03:59:52.475Z,65959.13
2022-09-06T04:02:18.963Z,65966.19
2022-09-06T04:04:45.411Z,65974.94
2022-09-06T04:07:11.868Z,65980.13
2022-09-06T04:12:04.827Z,65981.63
2022-09-06T04:19:24.032Z,65978.44
2022-09-06T04:21:50.462Z,65974.53
2022-09-06T04:24:16.850Z,65972.88
2022-09-06T04:29:09.595Z,65952.44
2022-09-06T04:36:29.768Z,65955.03
2022-09-06T04:41:23.051Z,65953.38
2022-09-06T04:43:49.413Z,65953.94
2022-09-06T04:48:46.854Z,65943.50
2022-09-06T04:51:13.375Z,65944.44
2022-09-06T04:58:32.777Z,65933.84
2022-09-06T05:00:59.158Z,65942.31
2022-09-06T05:03:25.658Z,65930.19
2022-09-06T05:08:18.891Z,65934.06
2022-09-06T05:10:45.290Z,65933.50
2022-09-06T05:13:11.717Z,65928.25
2022-09-06T05:18:05.201Z,65913.72
2022-09-06T05:20:31.680Z,65911.22
2022-09-06T05:22:58.060Z,65892.44
2022-09-06T05:25:24.472Z,65880.38
2022-09-06T05:27:50.867Z,65871.84
2022-09-06T05:30:18.252Z,65866.28
2022-09-06T05:35:10.983Z,65864.78
2022-09-06T05:37:37.351Z,65865.31
2022-09-06T05:40:03.995Z,65873.91
2022-09-06T05:42:30.441Z,65868.28
2022-09-06T05:44:56.841Z,65885.78
2022-09-06T05:57:10.106Z,65916.78
2022-09-06T06:02:07.079Z,65929.22
2022-09-06T06:04:33.929Z,65917.69
2022-09-06T06:07:00.289Z,65920.88
2022-09-06T06:09:26.644Z,65925.16
2022-09-06T06:11:53.061Z,65922.78
2022-09-06T06:14:19.518Z,65919.91
2022-09-06T06:21:38.971Z,65982.16
2022-09-06T06:24:06.272Z,65969.91
2022-09-06T06:29:02.285Z,65980.84
2022-09-06T06:31:30.099Z,65992.94
2022-09-06T06:33:56.681Z,66004.50
2022-09-06T06:36:25.316Z,66026.06
2022-09-06T06:38:55.161Z,66034.19
2022-09-06T06:41:24.421Z,66052.78
2022-09-06T06:44:02.718Z,66059.88
2022-09-06T06:46:32.051Z,66073.81
2022-09-06T06:48:58.559Z,66080.34
2022-09-06T06:53:52.960Z,66093.34
2022-09-06T06:58:48.681Z,66120.59
2022-09-06T07:01:16.565Z,66120.53
2022-09-06T07:03:43.086Z,66126.28
2022-09-06T07:08:41.879Z,66139.19
2022-09-06T07:11:10.650Z,66165.19
2022-09-06T07:13:37.709Z,66179.31
2022-09-06T07:16:23.383Z,66196.69
2022-09-06T07:18:54.474Z,66200.69
2022-09-06T07:21:42.236Z,66215.75
2022-09-06T07:26:38.558Z,66247.44
2022-09-06T07:29:06.049Z,66263.66
2022-09-06T07:34:20.390Z,66301.09
2022-09-06T07:36:46.877Z,66300.44
2022-09-06T07:39:14.024Z,66313.53
2022-09-06T07:41:40.382Z,66341.00
2022-09-06T07:51:25.884Z,66373.94
2022-09-06T07:54:13.243Z,66387.19
2022-09-06T07:56:44.305Z,66403.00
2022-09-06T07:59:10.711Z,66414.19
2022-09-06T08:01:38.946Z,66424.81
2022-09-06T08:11:55.293Z,66474.06
2022-09-06T08:16:47.952Z,66507.09
2022-09-06T08:19:14.493Z,66519.94
2022-09-06T08:24:12.478Z,66564.75
2022-09-06T08:26:40.563Z,66595.00
2022-09-06T08:29:08.610Z,66603.09
2022-09-06T08:31:37.597Z,66575.09
2022-09-06T08:34:04.329Z,66575.81
2022-09-06T08:36:31.292Z,66588.28
2022-09-06T08:46:46.894Z,66614.94
2022-09-06T08:49:13.580Z,66635.91
2022-09-06T08:51:50.918Z,66637.59
2022-09-06T08:57:44.566Z,66674.56
2022-09-06T09:00:13.422Z,66694.19
2022-09-06T09:05:21.391Z,66676.81
2022-09-06T09:08:04.097Z,66697.00
2022-09-06T09:17:55.489Z,66751.38
2022-09-06T09:22:49.316Z,66743.94
2022-09-06T09:25:23.107Z,66745.78
2022-09-06T09:27:57.602Z,66737.09
2022-09-06T09:33:36.904Z,66718.84
2022-09-06T09:38:42.222Z,66745.06
2022-09-06T09:43:41.456Z,66731.75
2022-09-06T09:48:37.982Z,66711.59
2022-09-06T09:51:27.021Z,66698.69
2022-09-06T09:53:59.457Z,66698.34
2022-09-06T09:56:51.601Z,66697.56
2022-09-06T10:09:39.611Z,66749.13
2022-09-06T10:12:07.030Z,66773.25
2022-09-06T10:14:44.620Z,66788.25
2022-09-06T10:30:05.687Z,66752.50
2022-09-06T10:37:52.045Z,66759.78
2022-09-06T10:42:53.768Z,66779.84
2022-09-06T10:50:41.393Z,66825.28
2022-09-06T10:53:13.667Z,66820.94
2022-09-06T10:58:19.657Z,66843.25
2022-09-06T11:06:08.990Z,66844.50
2022-09-06T11:08:53.287Z,66849.56
2022-09-06T11:14:09.412Z,66839.72
2022-09-06T11:22:05.865Z,66912.28
2022-09-06T11:27:37.426Z,66940.94
2022-09-06T11:35:10.924Z,66974.78
2022-09-06T11:37:42.855Z,66950.63
2022-09-06T11:40:35.741Z,66966.22
2022-09-06T11:43:03.012Z,66941.66
2022-09-06T11:48:33.888Z,66938.13
2022-09-06T11:51:07.388Z,66961.84
2022-09-06T11:53:48.747Z,66973.50
2022-09-06T11:59:04.099Z,67008.22
2022-09-06T12:01:30.456Z,67000.38
2022-09-06T12:04:05.146Z,67003.72
2022-09-06T12:11:33.999Z,67007.38
2022-09-06T12:17:14.004Z,67018.88
2022-09-06T12:19:56.014Z,67033.75
2022-09-06T12:24:54.469Z,67043.91
2022-09-06T12:27:26.791Z,67046.56
2022-09-06T12:29:59.598Z,67043.16
2022-09-06T12:40:22.969Z,67060.19
2022-09-06T12:42:51.143Z,67070.72
2022-09-06T12:45:25.141Z,67054.00
2022-09-06T12:48:08.645Z,67055.53
2022-09-06T12:58:04.536Z,67069.72
2022-09-06T13:05:54.749Z,67095.59
2022-09-06T13:08:32.663Z,67097.88
2022-09-06T13:15:53.573Z,67109.22
2022-09-06T13:21:15.647Z,67065.66
2022-09-06T13:28:37.186Z,67064.53
2022-09-06T13:33:54.487Z,67002.19
2022-09-06T13:38:49.181Z,66954.56
2022-09-06T13:41:24.609Z,66993.31
2022-09-06T13:46:28.023Z,67027.31
2022-09-06T13:53:48.867Z,67026.75
2022-09-06T13:58:45.066Z,67043.72
2022-09-06T14:01:11.923Z,67045.88
2022-09-06T14:06:08.120Z,67057.38
2022-09-06T14:18:42.404Z,67106.28
2022-09-06T14:23:35.476Z,67110.78
2022-09-06T14:28:32.172Z,67116.28
2022-09-06T14:33:25.179Z,67105.72
2022-09-06T14:35:52.335Z,67119.06
2022-09-06T14:38:18.750Z,67092.25
2022-09-06T14:43:11.618Z,67048.25
2022-09-06T14:45:38.189Z,67073.38
2022-09-06T14:48:05.482Z,67092.09
2022-09-06T14:52:58.526Z,67071.28
2022-09-06T14:55:25.094Z,67064.41
2022-09-06T15:02:45.371Z,67072.97
2022-09-06T15:07:38.142Z,67083.81
2022-09-06T15:12:31.136Z,67089.44
2022-09-06T15:14:57.531Z,67101.09
2022-09-06T15:27:10.009Z,67099.84
2022-09-06T15:32:02.829Z,67097.72
2022-09-06T15:36:56.999Z,67113.03
2022-09-06T15:41:50.634Z,67147.75
2022-09-06T15:49:29.171Z,67128.78
2022-09-06T15:52:00.808Z,67126.38
2022-09-06T15:54:46.727Z,67119.22
2022-09-06T15:59:41.255Z,67120.06
2022-09-06T16:02:08.516Z,67115.28
2022-09-06T16:04:35.102Z,67114.72
2022-09-06T16:09:28.232Z,67120.63
2022-09-06T16:11:54.652Z,67120.19
2022-09-06T16:14:21.483Z,67118.66
2022-09-06T16:16:48.315Z,67128.78
2022-09-06T16:19:14.740Z,67133.13
2022-09-06T16:31:39.165Z,67122.59
2022-09-06T16:34:06.534Z,67123.72
2022-09-06T16:38:59.270Z,67126.38
2022-09-06T16:41:28.943Z,67113.03
2022-09-06T16:43:55.571Z,67105.00
2022-09-06T16:46:24.748Z,67098.25
2022-09-06T16:48:52.801Z,67095.03
2022-09-06T16:51:21.871Z,67092.25
2022-09-06T16:58:44.562Z,67081.56
2022-09-06T17:06:04.683Z,67063.97
2022-09-06T17:08:32.771Z,67058.63
2022-09-06T17:11:09.366Z,67048.78
2022-09-06T17:13:36.554Z,67038.13
2022-09-06T17:16:22.643Z,67010.75
2022-09-06T17:21:15.717Z,67000.03
2022-09-06T17:23:42.182Z,66994.84
2022-09-06T17:28:36.893Z,66977.56
2022-09-06T17:33:31.821Z,66951.06
2022-09-06T17:38:32.518Z,66914.09
2022-09-06T17:40:59.821Z,66910.31
2022-09-06T17:45:53.210Z,66887.03
2022-09-06T17:48:19.721Z,66873.69
2022-09-06T17:50:46.189Z,66860.66
2022-09-06T17:53:12.550Z,66844.34
2022-09-06T17:55:42.428Z,66829.75
2022-09-06T18:00:40.117Z,66818.00
2022-09-06T18:03:08.300Z,66816.16
2022-09-06T18:05:39.634Z,66806.63
2022-09-06T18:08:07.758Z,66781.53
2022-09-06T18:10:38.189Z,66767.19
2022-09-06T18:13:06.039Z,66744.50
2022-09-06T18:15:37.866Z,66729.53
2022-09-06T18:18:04.330Z,66726.97
2022-09-06T18:20:30.709Z,66726.41
2022-09-06T18:22:57.203Z,66717.75
2022-09-06T18:25:23.635Z,66722.22
2022-09-06T18:27:50.001Z,66727.13
2022-09-06T18:35:09.926Z,66729.34
2022-09-06T18:37:36.588Z,66725.03
2022-09-06T18:40:05.167Z,66731.31
2022-09-06T18:42:31.917Z,66716.50
2022-09-06T18:44:58.355Z,66720.94
2022-09-06T18:49:51.100Z,66683.38
2022-09-06T18:52:19.604Z,66659.44
2022-09-06T18:54:46.080Z,66652.56
2022-09-06T18:57:16.368Z,66633.13
2022-09-06T18:59:42.937Z,66624.41
2022-09-06T19:02:09.370Z,66607.72
2022-09-06T19:09:29.070Z,66571.03
2022-09-06T19:11:55.502Z,66552.84
2022-09-06T19:14:21.960Z,66546.13
2022-09-06T19:19:16.950Z,66533.25
2022-09-06T19:21:43.329Z,66534.19
2022-09-06T19:24:11.528Z,66531.81
2022-09-06T19:26:41.607Z,66511.00
2022-09-06T19:29:12.526Z,66501.19
2022-09-06T19:31:39.485Z,66486.47
2022-09-06T19:34:06.318Z,66478.63
2022-09-06T19:36:33.456Z,66473.03
2022-09-06T19:39:06.179Z,66463.84
2022-09-06T19:41:38.137Z,66466.31
2022-09-06T19:44:07.667Z,66459.03
2022-09-06T19:46:35.065Z,66437.69
2022-09-06T19:54:00.229Z,66425.16
2022-09-06T19:58:57.297Z,66425.38
2022-09-06T20:01:25.738Z,66436.66
2022-09-06T20:03:52.511Z,66430.81
2022-09-06T20:06:18.990Z,66436.81
2022-09-06T20:08:50.434Z,66439.78
2022-09-06T20:11:17.394Z,66458.19
2022-09-06T20:13:43.828Z,66449.31
2022-09-06T20:16:11.530Z,66459.22
2022-09-06T20:18:38.095Z,66465.38
2022-09-06T20:21:05.622Z,66456.72
2022-09-06T20:23:34.239Z,66456.41
2022-09-06T20:31:00.642Z,66414.19
2022-09-06T20:33:27.110Z,66401.88
2022-09-06T20:35:55.682Z,66393.19
2022-09-06T20:38:22.832Z,66372.66
2022-09-06T20:40:57.766Z,66348.59
2022-09-06T20:43:24.712Z,66347.56
2022-09-06T20:45:51.101Z,66345.06
2022-09-06T20:48:17.447Z,66333.50
2022-09-06T20:50:43.858Z,66328.16
2022-09-06T20:53:10.354Z,66335.44
2022-09-06T20:55:36.882Z,66337.44
2022-09-06T20:58:03.233Z,66345.81
2022-09-06T21:00:29.598Z,66354.22
2022-09-06T21:02:55.949Z,66358.13
2022-09-06T21:05:22.517Z,66356.84
2022-09-06T21:12:41.484Z,66364.50
2022-09-06T21:15:08.100Z,66366.50
2022-09-06T21:17:34.500Z,66350.69
2022-09-06T21:20:00.887Z,66351.09
2022-09-06T21:22:28.408Z,66335.03
2022-09-06T21:24:54.821Z,66338.78
2022-09-06T21:27:21.189Z,66333.50
2022-09-06T21:29:47.720Z,66347.41
2022-09-06T21:32:14.068Z,66345.72
2022-09-06T21:34:40.413Z,66340.06
2022-09-06T21:37:06.912Z,66346.59
2022-09-06T21:41:59.694Z,66351.88
2022-09-06T21:46:52.646Z,66336.28
2022-09-06T21:49:19.073Z,66336.88
2022-09-06T21:51:45.446Z,66326.78
2022-09-06T21:54:11.879Z,66309.47
2022-09-06T21:56:39.397Z,66306.91
2022-09-06T21:59:06.718Z,66306.91
2022-09-06T22:01:35.515Z,66293.25
2022-09-06T22:04:02.235Z,66293.81
2022-09-06T22:06:31.001Z,66299.41
2022-09-06T22:08:59.977Z,66304.69
2022-09-06T22:11:31.946Z,66306.69
2022-09-06T22:14:03.169Z,66310.59
2022-09-06T22:18:56.501Z,66356.09
2022-09-06T22:21:23.400Z,66368.19
2022-09-06T22:26:25.600Z,66391.59
2022-09-06T22:31:23.360Z,66400.63
2022-09-06T22:33:50.646Z,66399.66
2022-09-06T22:36:17.214Z,66393.91
2022-09-06T22:38:43.661Z,66391.28
2022-09-06T22:41:10.553Z,66403.97
2022-09-06T22:43:37.181Z,66399.50
2022-09-06T22:48:33.092Z,66411.25
2022-09-06T22:51:00.573Z,66406.19
2022-09-06T22:55:55.295Z,66405.50
2022-09-06T23:00:48.797Z,66402.28
2022-09-06T23:03:15.216Z,66403.41
2022-09-06T23:05:41.615Z,66405.34
2022-09-06T23:08:08.218Z,66400.44
2022-09-06T23:10:42.582Z,66395.81
2022-09-06T23:13:10.396Z,66391.69
2022-09-06T23:15:38.614Z,66396.38
2022-09-06T23:18:04.987Z,66390.53
2022-09-06T23:20:31.488Z,66386.78
2022-09-06T23:25:24.341Z,66365.56
2022-09-06T23:27:51.217Z,66361.47
2022-09-06T23:30:17.670Z,66344.59
2022-09-06T23:32:44.030Z,66347.06
2022-09-06T23:35:10.381Z,66343.56
2022-09-06T23:37:36.796Z,66344.38
2022-09-06T23:40:08.327Z,66322.47
2022-09-06T23:42:35.400Z,66325.13
2022-09-06T23:45:01.763Z,66326.88
2022-09-06T23:49:54.432Z,66380.06
2022-09-06T23:52:20.780Z,66369.88
2022-09-06T23:57:13.409Z,66300.53
2022-09-06T23:59:39.753Z,66275.41
